sensor_id;sensor_type;location;lat;lon;timestamp;temperature;humidity
3876;DHT22;1953;51.222;6.624;2023-06-14T00:02:40;21.50;1.00
3876;DHT22;1953;51.222;6.624;2023-06-14T00:07:34;21.40;1.00
3876;DHT22;1953;51.222;6.624;2023-06-14T00:13:13;21.40;1.00
3876;DHT22;1953;51.222;6.624;2023-06-14T00:17:56;21.30;1.00
3876;DHT22;1953;51.222;6.624;2023-06-14T00:22:41;21.30;1.00
3876;DHT22;1953;51.222;6.624;2023-06-14T00:27:24;21.30;1.00
3876;DHT22;1953;51.222;6.624;2023-06-14T00:32:08;21.10;1.00
3876;DHT22;1953;51.222;6.624;2023-06-14T00:36:51;21.10;1.00
3876;DHT22;1953;51.222;6.624;2023-06-14T00:41:34;21.20;1.00
3876;DHT22;1953;51.222;6.624;2023-06-14T00:46:16;21.20;1.00
3876;DHT22;1953;51.222;6.624;2023-06-14T00:51:02;21.20;1.00
3876;DHT22;1953;51.222;6.624;2023-06-14T00:55:45;21.20;1.00
3876;DHT22;1953;51.222;6.624;2023-06-14T01:00:28;21.20;1.00
3876;DHT22;1953;51.222;6.624;2023-06-14T01:05:11;21.20;1.00
3876;DHT22;1953;51.222;6.624;2023-06-14T01:10:06;21.10;1.00
3876;DHT22;1953;51.222;6.624;2023-06-14T01:14:53;21.10;1.00
3876;DHT22;1953;51.222;6.624;2023-06-14T01:19:36;21.00;1.00
3876;DHT22;1953;51.222;6.624;2023-06-14T01:24:20;20.90;1.00
3876;DHT22;1953;51.222;6.624;2023-06-14T01:29:07;20.80;1.00
3876;DHT22;1953;51.222;6.624;2023-06-14T01:33:52;20.70;1.00
3876;DHT22;1953;51.222;6.624;2023-06-14T01:38:36;20.60;1.00
3876;DHT22;1953;51.222;6.624;2023-06-14T01:43:21;20.50;1.00
3876;DHT22;1953;51.222;6.624;2023-06-14T01:48:05;20.40;1.00
3876;DHT22;1953;51.222;6.624;2023-06-14T01:52:47;20.30;1.00
3876;DHT22;1953;51.222;6.624;2023-06-14T01:57:30;20.30;1.00
3876;DHT22;1953;51.222;6.624;2023-06-14T02:02:14;20.10;1.00
3876;DHT22;1953;51.222;6.624;2023-06-14T02:06:57;20.10;1.00
3876;DHT22;1953;51.222;6.624;2023-06-14T02:11:39;20.00;1.00
3876;DHT22;1953;51.222;6.624;2023-06-14T02:16:22;19.80;1.00
3876;DHT22;1953;51.222;6.624;2023-06-14T02:21:07;19.70;1.00
3876;DHT22;1953;51.222;6.624;2023-06-14T02:25:49;19.60;1.00
3876;DHT22;1953;51.222;6.624;2023-06-14T02:30:32;19.60;1.00
3876;DHT22;1953;51.222;6.624;2023-06-14T02:35:14;19.50;1.00
3876;DHT22;1953;51.222;6.624;2023-06-14T02:39:59;19.50;1.00
3876;DHT22;1953;51.222;6.624;2023-06-14T02:44:41;19.40;1.00
3876;DHT22;1953;51.222;6.624;2023-06-14T02:49:24;19.40;1.00
3876;DHT22;1953;51.222;6.624;2023-06-14T02:54:07;19.30;1.00
3876;DHT22;1953;51.222;6.624;2023-06-14T02:58:50;19.30;1.00
3876;DHT22;1953;51.222;6.624;2023-06-14T03:03:34;19.30;1.00
3876;DHT22;1953;51.222;6.624;2023-06-14T03:08:17;19.20;1.00
3876;DHT22;1953;51.222;6.624;2023-06-14T03:13:00;19.10;1.00
3876;DHT22;1953;51.222;6.624;2023-06-14T03:17:44;19.00;1.00
3876;DHT22;1953;51.222;6.624;2023-06-14T03:22:30;18.90;1.00
3876;DHT22;1953;51.222;6.624;2023-06-14T03:27:14;18.80;1.00
3876;DHT22;1953;51.222;6.624;2023-06-14T03:31:58;18.70;1.00
3876;DHT22;1953;51.222;6.624;2023-06-14T03:36:42;18.60;1.00
3876;DHT22;1953;51.222;6.624;2023-06-14T03:41:24;18.50;1.00
3876;DHT22;1953;51.222;6.624;2023-06-14T03:46:07;18.40;1.00
3876;DHT22;1953;51.222;6.624;2023-06-14T03:50:50;18.40;1.00
3876;DHT22;1953;51.222;6.624;2023-06-14T03:55:33;18.40;1.00
3876;DHT22;1953;51.222;6.624;2023-06-14T04:00:17;18.40;1.00
3876;DHT22;1953;51.222;6.624;2023-06-14T04:04:59;18.30;1.00
3876;DHT22;1953;51.222;6.624;2023-06-14T04:09:43;18.40;1.00
3876;DHT22;1953;51.222;6.624;2023-06-14T04:14:27;18.40;1.00
3876;DHT22;1953;51.222;6.624;2023-06-14T04:19:09;18.40;1.00
3876;DHT22;1953;51.222;6.624;2023-06-14T04:23:52;18.50;1.00
3876;DHT22;1953;51.222;6.624;2023-06-14T04:28:36;18.50;1.00
3876;DHT22;1953;51.222;6.624;2023-06-14T04:33:23;18.60;1.00
3876;DHT22;1953;51.222;6.624;2023-06-14T04:38:06;18.60;1.00
3876;DHT22;1953;51.222;6.624;2023-06-14T04:42:50;18.50;1.00
3876;DHT22;1953;51.222;6.624;2023-06-14T04:47:34;18.50;1.00
3876;DHT22;1953;51.222;6.624;2023-06-14T04:52:20;18.60;1.00
3876;DHT22;1953;51.222;6.624;2023-06-14T04:57:03;18.70;1.00
3876;DHT22;1953;51.222;6.624;2023-06-14T05:01:46;18.70;1.00
3876;DHT22;1953;51.222;6.624;2023-06-14T05:06:30;18.70;1.00
3876;DHT22;1953;51.222;6.624;2023-06-14T05:11:14;18.90;1.00
3876;DHT22;1953;51.222;6.624;2023-06-14T05:15:58;19.10;1.00
3876;DHT22;1953;51.222;6.624;2023-06-14T05:20:41;19.10;1.00
3876;DHT22;1953;51.222;6.624;2023-06-14T05:25:24;19.20;1.00
3876;DHT22;1953;51.222;6.624;2023-06-14T05:30:09;19.30;1.00
3876;DHT22;1953;51.222;6.624;2023-06-14T05:34:52;19.30;1.00
3876;DHT22;1953;51.222;6.624;2023-06-14T05:39:34;19.50;1.00
3876;DHT22;1953;51.222;6.624;2023-06-14T05:44:17;19.50;1.00
3876;DHT22;1953;51.222;6.624;2023-06-14T05:49:01;19.70;1.00
3876;DHT22;1953;51.222;6.624;2023-06-14T05:53:43;19.90;1.00
3876;DHT22;1953;51.222;6.624;2023-06-14T05:58:26;20.00;1.00
3876;DHT22;1953;51.222;6.624;2023-06-14T06:03:08;20.10;1.00
3876;DHT22;1953;51.222;6.624;2023-06-14T06:07:53;20.30;1.00
3876;DHT22;1953;51.222;6.624;2023-06-14T06:12:37;20.50;1.00
3876;DHT22;1953;51.222;6.624;2023-06-14T06:17:19;20.70;1.00
3876;DHT22;1953;51.222;6.624;2023-06-14T06:22:02;20.80;1.00
3876;DHT22;1953;51.222;6.624;2023-06-14T06:26:48;21.00;1.00
3876;DHT22;1953;51.222;6.624;2023-06-14T06:31:31;21.20;1.00
3876;DHT22;1953;51.222;6.624;2023-06-14T06:36:13;21.30;1.00
3876;DHT22;1953;51.222;6.624;2023-06-14T06:40:56;21.40;1.00
3876;DHT22;1953;51.222;6.624;2023-06-14T06:45:40;21.60;1.00
3876;DHT22;1953;51.222;6.624;2023-06-14T06:50:22;21.70;1.00
3876;DHT22;1953;51.222;6.624;2023-06-14T06:55:06;21.90;1.00
3876;DHT22;1953;51.222;6.624;2023-06-14T06:59:50;22.00;1.00
3876;DHT22;1953;51.222;6.624;2023-06-14T07:04:34;22.20;1.00
3876;DHT22;1953;51.222;6.624;2023-06-14T07:09:16;22.30;1.00
3876;DHT22;1953;51.222;6.624;2023-06-14T07:14:01;22.50;1.00
3876;DHT22;1953;51.222;6.624;2023-06-14T07:18:44;22.60;1.00
3876;DHT22;1953;51.222;6.624;2023-06-14T07:23:28;22.80;1.00
3876;DHT22;1953;51.222;6.624;2023-06-14T07:28:10;22.90;1.00
3876;DHT22;1953;51.222;6.624;2023-06-14T07:32:53;23.10;1.00
3876;DHT22;1953;51.222;6.624;2023-06-14T07:37:35;23.20;1.00
3876;DHT22;1953;51.222;6.624;2023-06-14T07:42:19;23.20;1.00
3876;DHT22;1953;51.222;6.624;2023-06-14T07:47:02;23.30;1.00
3876;DHT22;1953;51.222;6.624;2023-06-14T07:51:45;23.40;1.00
3876;DHT22;1953;51.222;6.624;2023-06-14T07:56:28;23.60;1.00
3876;DHT22;1953;51.222;6.624;2023-06-14T08:01:11;23.60;1.00
3876;DHT22;1953;51.222;6.624;2023-06-14T08:05:54;23.70;1.00
3876;DHT22;1953;51.222;6.624;2023-06-14T08:10:37;23.80;1.00
3876;DHT22;1953;51.222;6.624;2023-06-14T08:15:19;23.80;1.00
3876;DHT22;1953;51.222;6.624;2023-06-14T08:20:04;23.90;1.00
3876;DHT22;1953;51.222;6.624;2023-06-14T08:24:47;23.90;1.00
3876;DHT22;1953;51.222;6.624;2023-06-14T08:29:30;24.00;1.00
3876;DHT22;1953;51.222;6.624;2023-06-14T08:34:12;23.90;1.00
3876;DHT22;1953;51.222;6.624;2023-06-14T08:38:56;24.00;1.00
3876;DHT22;1953;51.222;6.624;2023-06-14T08:43:39;24.10;1.00
3876;DHT22;1953;51.222;6.624;2023-06-14T08:48:23;24.30;1.00
3876;DHT22;1953;51.222;6.624;2023-06-14T08:53:08;24.30;1.00
3876;DHT22;1953;51.222;6.624;2023-06-14T08:57:56;24.30;1.00
3876;DHT22;1953;51.222;6.624;2023-06-14T09:02:39;24.10;1.00
3876;DHT22;1953;51.222;6.624;2023-06-14T09:07:24;24.20;1.00
3876;DHT22;1953;51.222;6.624;2023-06-14T09:12:08;24.30;1.00
3876;DHT22;1953;51.222;6.624;2023-06-14T09:16:54;24.30;1.00
3876;DHT22;1953;51.222;6.624;2023-06-14T09:21:37;24.20;1.00
3876;DHT22;1953;51.222;6.624;2023-06-14T09:26:20;24.20;1.00
3876;DHT22;1953;51.222;6.624;2023-06-14T09:31:04;24.20;1.00
3876;DHT22;1953;51.222;6.624;2023-06-14T09:35:51;24.20;1.00
3876;DHT22;1953;51.222;6.624;2023-06-14T09:40:36;24.10;1.00
3876;DHT22;1953;51.222;6.624;2023-06-14T09:45:19;24.00;1.00
3876;DHT22;1953;51.222;6.624;2023-06-14T09:50:04;24.10;1.00
3876;DHT22;1953;51.222;6.624;2023-06-14T09:54:48;24.10;1.00
3876;DHT22;1953;51.222;6.624;2023-06-14T09:59:31;24.00;1.00
3876;DHT22;1953;51.222;6.624;2023-06-14T10:04:15;24.10;1.00
3876;DHT22;1953;51.222;6.624;2023-06-14T10:09:04;24.10;1.00
3876;DHT22;1953;51.222;6.624;2023-06-14T10:13:49;24.20;1.00
3876;DHT22;1953;51.222;6.624;2023-06-14T10:18:36;24.20;1.00
3876;DHT22;1953;51.222;6.624;2023-06-14T10:23:23;24.40;1.00
3876;DHT22;1953;51.222;6.624;2023-06-14T10:28:17;24.30;1.00
3876;DHT22;1953;51.222;6.624;2023-06-14T10:33:07;24.40;1.00
3876;DHT22;1953;51.222;6.624;2023-06-14T10:37:52;24.50;1.00
3876;DHT22;1953;51.222;6.624;2023-06-14T10:42:34;24.40;1.00
3876;DHT22;1953;51.222;6.624;2023-06-14T10:47:27;24.50;1.00
3876;DHT22;1953;51.222;6.624;2023-06-14T10:52:12;24.50;1.00
3876;DHT22;1953;51.222;6.624;2023-06-14T10:57:00;24.40;1.00
3876;DHT22;1953;51.222;6.624;2023-06-14T11:01:58;24.60;1.00
3876;DHT22;1953;51.222;6.624;2023-06-14T11:06:48;24.60;1.00
3876;DHT22;1953;51.222;6.624;2023-06-14T11:11:35;24.60;1.00
3876;DHT22;1953;51.222;6.624;2023-06-14T11:16:19;24.80;1.00
3876;DHT22;1953;51.222;6.624;2023-06-14T11:21:02;24.70;1.00
3876;DHT22;1953;51.222;6.624;2023-06-14T11:25:49;24.90;1.00
3876;DHT22;1953;51.222;6.624;2023-06-14T11:30:33;25.10;1.00
3876;DHT22;1953;51.222;6.624;2023-06-14T11:35:16;25.20;1.00
3876;DHT22;1953;51.222;6.624;2023-06-14T11:39:59;25.20;1.00
3876;DHT22;1953;51.222;6.624;2023-06-14T11:44:42;25.40;1.00
3876;DHT22;1953;51.222;6.624;2023-06-14T11:49:26;25.50;1.00
3876;DHT22;1953;51.222;6.624;2023-06-14T11:54:09;25.50;1.00
3876;DHT22;1953;51.222;6.624;2023-06-14T11:58:52;25.80;1.00
3876;DHT22;1953;51.222;6.624;2023-06-14T12:03:47;26.30;1.00
3876;DHT22;1953;51.222;6.624;2023-06-14T12:08:35;26.50;1.00
3876;DHT22;1953;51.222;6.624;2023-06-14T12:14:15;27.00;1.00
3876;DHT22;1953;51.222;6.624;2023-06-14T12:19:00;27.30;1.00
3876;DHT22;1953;51.222;6.624;2023-06-14T12:23:44;28.10;1.00
3876;DHT22;1953;51.222;6.624;2023-06-14T12:28:31;28.80;1.00
3876;DHT22;1953;51.222;6.624;2023-06-14T12:33:15;29.60;1.00
3876;DHT22;1953;51.222;6.624;2023-06-14T12:37:57;30.30;1.00
3876;DHT22;1953;51.222;6.624;2023-06-14T12:42:41;31.20;1.00
3876;DHT22;1953;51.222;6.624;2023-06-14T12:47:23;32.00;1.00
3876;DHT22;1953;51.222;6.624;2023-06-14T12:52:08;32.60;1.00
3876;DHT22;1953;51.222;6.624;2023-06-14T12:56:51;33.00;1.00
3876;DHT22;1953;51.222;6.624;2023-06-14T13:01:34;33.50;1.00
3876;DHT22;1953;51.222;6.624;2023-06-14T13:06:16;33.10;1.00
3876;DHT22;1953;51.222;6.624;2023-06-14T13:11:00;33.70;1.00
3876;DHT22;1953;51.222;6.624;2023-06-14T13:15:43;34.50;1.00
3876;DHT22;1953;51.222;6.624;2023-06-14T13:20:27;35.10;1.00
3876;DHT22;1953;51.222;6.624;2023-06-14T13:25:09;35.50;1.00
3876;DHT22;1953;51.222;6.624;2023-06-14T13:29:53;36.00;1.00
3876;DHT22;1953;51.222;6.624;2023-06-14T13:34:36;36.60;1.00
3876;DHT22;1953;51.222;6.624;2023-06-14T13:39:18;36.80;1.00
3876;DHT22;1953;51.222;6.624;2023-06-14T13:48:13;36.70;1.00
3876;DHT22;1953;51.222;6.624;2023-06-14T13:52:56;37.00;1.00
3876;DHT22;1953;51.222;6.624;2023-06-14T13:57:38;36.30;1.00
3876;DHT22;1953;51.222;6.624;2023-06-14T14:02:21;35.90;1.00
3876;DHT22;1953;51.222;6.624;2023-06-14T14:07:05;36.40;1.00
3876;DHT22;1953;51.222;6.624;2023-06-14T14:11:48;37.00;1.00
3876;DHT22;1953;51.222;6.624;2023-06-14T14:16:31;36.20;1.00
3876;DHT22;1953;51.222;6.624;2023-06-14T14:21:13;36.40;1.00
3876;DHT22;1953;51.222;6.624;2023-06-14T14:25:57;35.90;1.00
3876;DHT22;1953;51.222;6.624;2023-06-14T14:30:42;35.60;1.00
3876;DHT22;1953;51.222;6.624;2023-06-14T14:35:24;35.70;1.00
3876;DHT22;1953;51.222;6.624;2023-06-14T14:40:12;35.80;1.00
3876;DHT22;1953;51.222;6.624;2023-06-14T14:44:56;36.40;1.00
3876;DHT22;1953;51.222;6.624;2023-06-14T14:49:38;36.30;1.00
3876;DHT22;1953;51.222;6.624;2023-06-14T14:54:21;36.70;1.00
3876;DHT22;1953;51.222;6.624;2023-06-14T14:59:04;35.90;1.00
3876;DHT22;1953;51.222;6.624;2023-06-14T15:03:48;36.00;1.00
3876;DHT22;1953;51.222;6.624;2023-06-14T15:08:30;36.40;1.00
3876;DHT22;1953;51.222;6.624;2023-06-14T15:13:13;36.70;1.00
3876;DHT22;1953;51.222;6.624;2023-06-14T15:17:56;36.60;1.00
3876;DHT22;1953;51.222;6.624;2023-06-14T15:22:40;36.60;1.00
3876;DHT22;1953;51.222;6.624;2023-06-14T15:27:22;36.10;1.00
3876;DHT22;1953;51.222;6.624;2023-06-14T15:32:06;36.50;1.00
3876;DHT22;1953;51.222;6.624;2023-06-14T15:36:49;36.80;1.00
3876;DHT22;1953;51.222;6.624;2023-06-14T15:41:33;36.80;1.00
3876;DHT22;1953;51.222;6.624;2023-06-14T15:46:16;36.40;1.00
3876;DHT22;1953;51.222;6.624;2023-06-14T15:50:59;36.70;1.00
3876;DHT22;1953;51.222;6.624;2023-06-14T15:55:42;36.60;1.00
3876;DHT22;1953;51.222;6.624;2023-06-14T16:00:25;36.70;1.00
3876;DHT22;1953;51.222;6.624;2023-06-14T16:05:08;36.10;1.00
3876;DHT22;1953;51.222;6.624;2023-06-14T16:09:51;34.80;1.00
3876;DHT22;1953;51.222;6.624;2023-06-14T16:14:33;35.00;1.00
3876;DHT22;1953;51.222;6.624;2023-06-14T16:19:17;35.50;1.00
3876;DHT22;1953;51.222;6.624;2023-06-14T16:23:59;35.80;1.00
3876;DHT22;1953;51.222;6.624;2023-06-14T16:28:42;36.10;1.00
3876;DHT22;1953;51.222;6.624;2023-06-14T16:33:25;34.80;1.00
3876;DHT22;1953;51.222;6.624;2023-06-14T16:38:09;35.00;1.00
3876;DHT22;1953;51.222;6.624;2023-06-14T16:42:51;34.90;1.00
3876;DHT22;1953;51.222;6.624;2023-06-14T16:47:34;34.60;1.00
3876;DHT22;1953;51.222;6.624;2023-06-14T16:52:16;34.90;1.00
3876;DHT22;1953;51.222;6.624;2023-06-14T16:57:00;34.80;1.00
3876;DHT22;1953;51.222;6.624;2023-06-14T17:01:43;34.50;1.00
3876;DHT22;1953;51.222;6.624;2023-06-14T17:06:25;34.80;1.00
3876;DHT22;1953;51.222;6.624;2023-06-14T17:11:08;34.70;1.00
3876;DHT22;1953;51.222;6.624;2023-06-14T17:15:52;33.90;1.00
3876;DHT22;1953;51.222;6.624;2023-06-14T17:20:35;34.00;1.00
3876;DHT22;1953;51.222;6.624;2023-06-14T17:25:17;34.00;1.00
3876;DHT22;1953;51.222;6.624;2023-06-14T17:30:00;33.60;1.00
3876;DHT22;1953;51.222;6.624;2023-06-14T17:34:44;33.50;1.00
3876;DHT22;1953;51.222;6.624;2023-06-14T17:39:26;33.50;1.00
3876;DHT22;1953;51.222;6.624;2023-06-14T17:44:09;33.50;1.00
3876;DHT22;1953;51.222;6.624;2023-06-14T17:48:51;33.50;1.00
3876;DHT22;1953;51.222;6.624;2023-06-14T17:53:35;33.20;1.00
3876;DHT22;1953;51.222;6.624;2023-06-14T17:58:18;32.80;1.00
3876;DHT22;1953;51.222;6.624;2023-06-14T18:03:01;32.70;1.00
3876;DHT22;1953;51.222;6.624;2023-06-14T18:07:43;32.60;1.00
3876;DHT22;1953;51.222;6.624;2023-06-14T18:12:28;32.50;1.00
3876;DHT22;1953;51.222;6.624;2023-06-14T18:17:10;31.90;1.00
3876;DHT22;1953;51.222;6.624;2023-06-14T18:21:53;31.60;1.00
3876;DHT22;1953;51.222;6.624;2023-06-14T18:26:35;31.20;1.00
3876;DHT22;1953;51.222;6.624;2023-06-14T18:31:20;30.80;1.00
3876;DHT22;1953;51.222;6.624;2023-06-14T18:36:03;30.60;1.00
3876;DHT22;1953;51.222;6.624;2023-06-14T18:40:45;30.10;1.00
3876;DHT22;1953;51.222;6.624;2023-06-14T18:45:29;29.50;1.00
3876;DHT22;1953;51.222;6.624;2023-06-14T18:50:13;29.10;1.00
3876;DHT22;1953;51.222;6.624;2023-06-14T18:54:56;29.00;1.00
3876;DHT22;1953;51.222;6.624;2023-06-14T18:59:38;28.70;1.00
3876;DHT22;1953;51.222;6.624;2023-06-14T19:04:21;28.40;1.00
3876;DHT22;1953;51.222;6.624;2023-06-14T19:09:05;28.00;1.00
3876;DHT22;1953;51.222;6.624;2023-06-14T19:13:47;27.80;1.00
3876;DHT22;1953;51.222;6.624;2023-06-14T19:18:30;27.50;1.00
3876;DHT22;1953;51.222;6.624;2023-06-14T19:23:13;27.10;1.00
3876;DHT22;1953;51.222;6.624;2023-06-14T19:27:57;26.90;1.00
3876;DHT22;1953;51.222;6.624;2023-06-14T19:32:41;26.80;1.00
3876;DHT22;1953;51.222;6.624;2023-06-14T19:37:23;26.70;1.00
3876;DHT22;1953;51.222;6.624;2023-06-14T19:42:06;26.60;1.00
3876;DHT22;1953;51.222;6.624;2023-06-14T19:46:50;26.40;1.00
3876;DHT22;1953;51.222;6.624;2023-06-14T19:51:33;26.30;1.00
3876;DHT22;1953;51.222;6.624;2023-06-14T19:56:16;26.20;1.00
3876;DHT22;1953;51.222;6.624;2023-06-14T20:00:58;26.10;1.00
3876;DHT22;1953;51.222;6.624;2023-06-14T20:05:42;26.00;1.00
3876;DHT22;1953;51.222;6.624;2023-06-14T20:10:25;25.80;1.00
3876;DHT22;1953;51.222;6.624;2023-06-14T20:15:09;25.60;1.00
3876;DHT22;1953;51.222;6.624;2023-06-14T20:19:52;25.40;1.00
3876;DHT22;1953;51.222;6.624;2023-06-14T20:24:36;25.20;1.00
3876;DHT22;1953;51.222;6.624;2023-06-14T20:29:18;25.20;1.00
3876;DHT22;1953;51.222;6.624;2023-06-14T20:34:01;25.10;1.00
3876;DHT22;1953;51.222;6.624;2023-06-14T20:38:45;25.00;1.00
3876;DHT22;1953;51.222;6.624;2023-06-14T20:43:29;24.90;1.00
3876;DHT22;1953;51.222;6.624;2023-06-14T20:48:12;24.80;1.00
3876;DHT22;1953;51.222;6.624;2023-06-14T20:52:54;24.70;1.00
3876;DHT22;1953;51.222;6.624;2023-06-14T20:57:37;24.60;1.00
3876;DHT22;1953;51.222;6.624;2023-06-14T21:02:20;24.60;1.00
3876;DHT22;1953;51.222;6.624;2023-06-14T21:07:04;24.40;1.00
3876;DHT22;1953;51.222;6.624;2023-06-14T21:11:47;24.30;1.00
3876;DHT22;1953;51.222;6.624;2023-06-14T21:16:29;24.20;1.00
3876;DHT22;1953;51.222;6.624;2023-06-14T21:21:13;24.00;1.00
3876;DHT22;1953;51.222;6.624;2023-06-14T21:25:55;23.90;1.00
3876;DHT22;1953;51.222;6.624;2023-06-14T21:30:38;23.80;1.00
3876;DHT22;1953;51.222;6.624;2023-06-14T21:35:20;23.70;1.00
3876;DHT22;1953;51.222;6.624;2023-06-14T21:40:06;23.60;1.00
3876;DHT22;1953;51.222;6.624;2023-06-14T21:44:48;23.50;1.00
3876;DHT22;1953;51.222;6.624;2023-06-14T21:49:32;23.40;1.00
3876;DHT22;1953;51.222;6.624;2023-06-14T21:54:15;23.30;1.00
3876;DHT22;1953;51.222;6.624;2023-06-14T21:58:58;23.20;1.00
3876;DHT22;1953;51.222;6.624;2023-06-14T22:03:41;23.10;1.00
3876;DHT22;1953;51.222;6.624;2023-06-14T22:08:23;23.00;1.00
3876;DHT22;1953;51.222;6.624;2023-06-14T22:13:07;23.00;1.00
3876;DHT22;1953;51.222;6.624;2023-06-14T22:17:52;22.90;1.00
3876;DHT22;1953;51.222;6.624;2023-06-14T22:22:37;22.80;1.00
3876;DHT22;1953;51.222;6.624;2023-06-14T22:27:21;22.70;1.00
3876;DHT22;1953;51.222;6.624;2023-06-14T22:32:09;22.70;1.00
3876;DHT22;1953;51.222;6.624;2023-06-14T22:36:53;22.50;1.00
3876;DHT22;1953;51.222;6.624;2023-06-14T22:41:35;22.40;1.00
3876;DHT22;1953;51.222;6.624;2023-06-14T22:46:18;22.30;1.00
3876;DHT22;1953;51.222;6.624;2023-06-14T22:51:04;22.10;1.00
3876;DHT22;1953;51.222;6.624;2023-06-14T22:55:48;22.10;1.00
3876;DHT22;1953;51.222;6.624;2023-06-14T23:00:30;22.00;1.00
3876;DHT22;1953;51.222;6.624;2023-06-14T23:05:13;21.90;1.00
3876;DHT22;1953;51.222;6.624;2023-06-14T23:09:58;21.80;1.00
3876;DHT22;1953;51.222;6.624;2023-06-14T23:14:43;21.80;1.00
3876;DHT22;1953;51.222;6.624;2023-06-14T23:19:25;20.00;1.00
3876;DHT22;1953;51.222;6.624;2023-06-14T23:24:10;21.60;1.00
3876;DHT22;1953;51.222;6.624;2023-06-14T23:28:54;21.60;1.00
3876;DHT22;1953;51.222;6.624;2023-06-14T23:33:38;21.50;1.00
3876;DHT22;1953;51.222;6.624;2023-06-14T23:38:21;21.40;1.00
3876;DHT22;1953;51.222;6.624;2023-06-14T23:43:04;21.40;1.00
3876;DHT22;1953;51.222;6.624;2023-06-14T23:47:47;21.20;1.00
3876;DHT22;1953;51.222;6.624;2023-06-14T23:52:31;21.10;1.00
3876;DHT22;1953;51.222;6.624;2023-06-14T23:57:15;21.10;1.00
